地図

経路データ

SID SEASON NUMBER BASIN SUBBASIN NAME ISO_TIME NATURE LAT LON WMO_WIND WMO_PRES WMO_AGENCY TRACK_TYPE DIST2LAND LANDFALL IFLAG USA_AGENCY USA_ATCF_ID USA_LAT USA_LON USA_RECORD USA_STATUS USA_WIND USA_PRES USA_SSHS USA_R34_NE USA_R34_SE USA_R34_SW USA_R34_NW USA_R50_NE USA_R50_SE USA_R50_SW USA_R50_NW USA_R64_NE USA_R64_SE USA_R64_SW USA_R64_NW USA_POCI USA_ROCI USA_RMW USA_EYE TOKYO_LAT TOKYO_LON TOKYO_GRADE TOKYO_WIND TOKYO_PRES TOKYO_R50_DIR TOKYO_R50_LONG TOKYO_R50_SHORT TOKYO_R30_DIR TOKYO_R30_LONG TOKYO_R30_SHORT TOKYO_LAND CMA_LAT CMA_LON CMA_CAT CMA_WIND CMA_PRES HKO_LAT HKO_LON HKO_CAT HKO_WIND HKO_PRES NEWDELHI_LAT NEWDELHI_LON NEWDELHI_GRADE NEWDELHI_WIND NEWDELHI_PRES NEWDELHI_CI NEWDELHI_DP NEWDELHI_POCI REUNION_LAT REUNION_LON REUNION_TYPE REUNION_WIND REUNION_PRES REUNION_TNUM REUNION_CI REUNION_RMW REUNION_R34_NE REUNION_R34_SE REUNION_R34_SW REUNION_R34_NW REUNION_R50_NE REUNION_R50_SE REUNION_R50_SW REUNION_R50_NW REUNION_R64_NE REUNION_R64_SE REUNION_R64_SW REUNION_R64_NW BOM_LAT BOM_LON BOM_TYPE BOM_WIND BOM_PRES BOM_TNUM BOM_CI BOM_RMW BOM_R34_NE BOM_R34_SE BOM_R34_SW BOM_R34_NW BOM_R50_NE BOM_R50_SE BOM_R50_SW BOM_R50_NW BOM_R64_NE BOM_R64_SE BOM_R64_SW BOM_R64_NW BOM_ROCI BOM_POCI BOM_EYE BOM_POS_METHOD BOM_PRES_METHOD NADI_LAT NADI_LON NADI_CAT NADI_WIND NADI_PRES WELLINGTON_LAT WELLINGTON_LON WELLINGTON_WIND WELLINGTON_PRES DS824_LAT DS824_LON DS824_STAGE DS824_WIND DS824_PRES TD9636_LAT TD9636_LON TD9636_STAGE TD9636_WIND TD9636_PRES TD9635_LAT TD9635_LON TD9635_WIND TD9635_PRES TD9635_ROCI NEUMANN_LAT NEUMANN_LON NEUMANN_CLASS NEUMANN_WIND NEUMANN_PRES MLC_LAT MLC_LON MLC_CLASS MLC_WIND MLC_PRES USA_GUST BOM_GUST BOM_GUST_PER REUNION_GUST REUNION_GUST_PER USA_SEAHGT USA_SEARAD_NE USA_SEARAD_SE USA_SEARAD_SW USA_SEARAD_NW STORM_SPEED STORM_DIR
1998260N16110 1998 65 WP MM NOT_NAMED 1998-09-16 18:00:00 NR 16.0000 110.200 main 165 148 O_____________ jtwc_wp WP121998 16.0000 110.200 20 -1 3 287
1998260N16110 1998 65 WP MM NOT_NAMED 1998-09-16 21:00:00 NR 16.0500 110.038 main 155 147 P_____________ WP121998 16.0500 110.038 20 -1 3 289
1998260N16110 1998 65 WP MM NOT_NAMED 1998-09-17 00:00:00 NR 16.1000 109.900 main 147 139 O_____________ jtwc_wp WP121998 16.1000 109.900 20 -1 2 294
1998260N16110 1998 65 WP MM NOT_NAMED 1998-09-17 03:00:00 NR 16.1500 109.800 main 139 139 P_____________ WP121998 16.1500 109.800 20 -1 2 297
1998260N16110 1998 65 WP MM NOT_NAMED 1998-09-17 06:00:00 NR 16.2000 109.700 main 139 131 O_____________ jtwc_wp WP121998 16.2000 109.700 20 -1 2 295
1998260N16110 1998 65 WP MM NOT_NAMED 1998-09-17 09:00:00 NR 16.2499 109.580 main 131 120 P_____________ WP121998 16.2499 109.580 20 -1 3 289
1998260N16110 1998 65 WP MM NOT_NAMED 1998-09-17 12:00:00 NR 16.3000 109.400 main 120 91 O_____________ jtwc_wp WP121998 16.3000 109.400 20 -1 5 282
1998260N16110 1998 65 WP MM NOT_NAMED 1998-09-17 15:00:00 NR 16.3501 109.108 main 96 69 P_____________ WP121998 16.3501 109.108 20 -1 6 280
1998260N16110 1998 65 WP MM NOT_NAMED 1998-09-17 18:00:00 NR 16.4000 108.800 main 69 55 O_____________ jtwc_wp WP121998 16.4000 108.800 20 -1 5 280
1998260N16110 1998 65 WP MM NOT_NAMED 1998-09-17 21:00:00 NR 16.4424 108.585 main 55 46 P_____________ WP121998 16.4424 108.585 22 -1 4 285
1998260N16110 1998 65 WP MM NOT_NAMED 1998-09-18 00:00:00 NR 16.5000 108.400 main 46 39 O_____________ jtwc_wp WP121998 16.5000 108.400 25 -1 4 290
1998260N16110 1998 65 WP MM NOT_NAMED 1998-09-18 03:00:00 NR 16.5775 108.207 main 46 39 P_____________ WP121998 16.5775 108.207 27 -1 4 297
1998260N16110 1998 65 WP MM NOT_NAMED 1998-09-18 06:00:00 NR 16.7000 108.000 main 39 30 O_____________ jtwc_wp WP121998 16.7000 108.000 30 -1 5 306
1998260N16110 1998 65 WP MM NOT_NAMED 1998-09-18 09:00:00 NR 16.8925 107.750 main 39 35 P_____________ WP121998 16.8925 107.750 27 -1 6 310
1998260N16110 1998 65 WP MM NOT_NAMED 1998-09-18 12:00:00 NR 17.1000 107.500 main 38 24 O_____________ jtwc_wp WP121998 17.1000 107.500 25 -1 6 309
1998260N16110 1998 65 WP MM NOT_NAMED 1998-09-18 15:00:00 NR 17.2500 107.285 main 24 24 P_____________ WP121998 17.2500 107.285 25 -1 5 308
1998260N16110 1998 65 WP MM NOT_NAMED 1998-09-18 18:00:00 NR 17.4000 107.100 main 30 30 O_____________ jtwc_wp WP121998 17.4000 107.100 25 -1 5 316
1998260N16110 1998 65 WP MM NOT_NAMED 1998-09-18 21:00:00 NR 17.5925 106.935 main 30 30 P_____________ WP121998 17.5925 106.935 25 -1 5 325
1998260N16110 1998 65 WP MM NOT_NAMED 1998-09-19 00:00:00 NR 17.8000 106.800 main 33 21 O_____________ jtwc_wp WP121998 17.8000 106.800 25 -1 5 332
1998260N16110 1998 65 WP MM NOT_NAMED 1998-09-19 03:00:00 NR 18.0000 106.707 main 23 21 P_____________ WP121998 18.0000 106.707 27 -1 4 335
1998260N16110 1998 65 WP MM NOT_NAMED 1998-09-19 06:00:00 NR 18.2000 106.600 main 23 23 O_____________ jtwc_wp WP121998 18.2000 106.600 30 -1 5 327
1998260N16110 1998 65 WP MM NOT_NAMED 1998-09-19 09:00:00 NR 18.4225 106.423 main 24 24 P_____________ WP121998 18.4225 106.423 27 -1 6 317
1998260N16110 1998 65 WP MM NOT_NAMED 1998-09-19 12:00:00 NR 18.6000 106.200 main 30 21 O_____________ jtwc_wp WP121998 18.6000 106.200 25 -1 5 300
1998260N16110 1998 65 WP MM NOT_NAMED 1998-09-19 15:00:00 NR 18.6801 105.955 main 21 0 P_____________ WP121998 18.6801 105.955 25 -1 5 282
1998260N16110 1998 65 WP MM NOT_NAMED 1998-09-19 18:00:00 NR 18.7000 105.700 main 0 O_____________ jtwc_wp WP121998 18.7000 105.700 25 -1 5 275

デジタル台風データ・検索

IBTrACS Databaseについて

本データベースは、米国NOAAが公開する1842年以降の世界の熱帯低気圧のベストトラックデータアーカイブInternational Best Track Archive for Climate Stewardship (IBTrACS)を、ウェブで閲覧しやすい形式に変換したものです。

最終更新日:2021-10-19